Station: Parawa West

  Atmospheric Gas Attenuation - ITU Rec 676-11   --------------- db/100km ---------------
Date Time Temp RH % AH g/m3 Dew Point Wind Direction Speed kph Gust kph Barometer mB Rainfall Since 9am 24GHz 47GHz 76GHz 122GHz 134GHz 241GHz
13 09:10 10.1 98 9.27 9.8 11 13 1013.1 0 21.2 28.1 44.6 117.1 112.7 387.9
13 09:00 10 99 9.3 9.9 7 11 1027.9 0 21.3 28.8 45.5 119.4 114.6 394.5
13 08:50 9.8 99 9.19 9.6 7 7 1013.1 5.2 21.1 28.1 44.4 116.7 112.0 385.4
13 08:40 9.5 100 9.1 9.5 7 7 1013.1 5.2 20.9 28.0 44.2 116.1 111.1 382.4
13 08:30 8.8 99 8.62 8.7 7 7 1027.8 5.2 19.9 28.0 43.2 113.2 106.6 366.2
13 08:20 8.3 99 8.35 8.1 6 7 1013.1 5.2 19.3 27.1 41.6 109.2 102.1 350.8
13 08:10 7.9 99 8.14 7.7 7 7 1013.1 5.2 18.9 26.9 40.9 107.3 99.7 342.3
13 08:00 7.7 99 8.03 7.6 6 6 1027.6 5.2 18.6 27.3 41.2 107.9 99.6 341.7
13 07:50 7.3 99 7.83 7.1 6 6 1013.1 5.2 18.2 26.5 39.9 104.6 96.1 329.6
13 07:40 7.3 99 7.83 7.1 6 6 1013.1 5.2 18.2 26.5 39.9 104.6 96.1 329.6
13 07:30 7.8 99 8.08 7.7 4 4 1027.4 5.2 18.7 27.4 41.4 108.4 100.2 343.7
13 07:20 7.8 99 8.08 7.6 4 4 1013.1 5.2 18.8 26.8 40.7 106.8 99.0 339.7
13 07:10 7.8 99 8.08 7.6 4 6 1013.1 5.2 18.8 26.8 40.7 106.8 99.0 339.7
13 07:00 7.5 99 7.93 7.4 6 9 1027.1 5.2 18.4 27.2 40.9 107.0 98.4 337.5
13 06:50 7.6 99 7.98 7.4 7 7 1013.1 5.2 18.6 26.7 40.4 105.9 97.8 335.7
13 06:40 7.3 98 7.75 7 11 11 1013.1 5.2 18.1 26.4 39.5 103.7 95.0 325.7
13 06:30 8.2 99 8.29 8.1 9 13 1026.9 5.2 19.2 27.6 42.0 110.2 102.6 352.2
13 06:20 8.2 99 8.29 8 9 9 1013.1 5.2 19.2 27.0 41.4 108.6 101.4 348.3
13 06:10 8.3 99 8.35 8.1 9 9 1013.1 5.2 19.3 27.1 41.6 109.2 102.1 350.8
13 06:00 8.4 99 8.4 8.3 11 13 1026.4 5.2 19.4 27.7 42.4 111.1 103.8 356.7
13 05:50 7.9 99 8.14 7.7 11 13 1013.1 5.2 18.9 26.9 40.9 107.3 99.7 342.3
13 05:40 7.5 98 7.85 7.2 13 15 1013.1 5.2 18.3 26.5 39.9 104.6 96.1 329.7
13 05:30 7.8 98 8 7.5 9 11 1026.2 5.2 18.6 27.2 41.0 107.3 98.9 339.4
13 05:20 8.4 98 8.32 8.1 9 9 1013.1 5.2 19.2 27.0 41.4 108.7 101.6 348.9
13 05:10 8.6 98 8.42 8.3 11 11 1013.1 5.2 19.5 27.1 41.7 109.6 102.7 352.9
13 04:50 8.9 99 8.68 8.7 15 15 1013.1 5.2 20.0 27.5 42.7 112.1 106.0 364.4
13 04:40 8.4 98 8.32 8.1 15 17 1013.1 5.2 19.2 27.0 41.4 108.7 101.6 348.9
13 04:30 8.3 98 8.26 8 9 11 1026 5.2 19.1 27.5 41.8 109.6 102.0 350.0
13 04:20 8.5 98 8.37 8.2 6 7 1013.1 5.2 19.4 27.1 41.6 109.1 102.2 350.9
13 04:10 8.6 97 8.34 8.1 4 4 1013.1 5.2 19.3 27.0 41.4 108.7 101.6 349.0
13 04:00 9 98 8.64 8.7 6 9 1026 5.2 19.9 27.9 43.1 113.0 106.4 365.7
13 03:50 9.1 98 8.7 8.8 7 7 1013.1 5.2 20.0 27.5 42.7 112.1 106.0 364.4
13 03:40 9.4 98 8.87 9.1 7 9 1013.1 5.2 20.4 27.7 43.2 113.6 108.0 371.4
13 03:30 9.5 98 8.92 9.2 15 20 1025.9 5.2 20.5 28.2 44.0 115.4 109.7 377.3
13 03:20 9.5 98 8.92 9.2 15 17 1013.1 5.2 20.5 27.7 43.4 114.0 108.6 373.4
13 03:10 9.6 98 8.98 9.3 17 20 1013.1 5.2 20.6 27.8 43.6 114.5 109.3 375.9
13 03:00 9.5 97 8.83 9 17 20 1025.8 5.2 20.3 28.1 43.6 114.4 108.4 372.7
13 02:50 9.5 97 8.83 9 19 20 1013.1 5.2 20.3 27.6 43.0 113.0 107.3 369.0
13 02:40 9.6 97 8.89 9.1 15 19 1013.1 5.2 20.4 27.6 43.2 113.5 108.0 371.5
13 02:30 10 97 9.12 9.5 13 19 1025.8 5.2 20.9 28.4 44.6 117.0 111.8 384.8
13 02:20 10 97 9.12 9.5 9 11 1013.1 5.2 20.9 27.9 44.0 115.6 110.7 380.9
13 02:10 10.1 97 9.17 9.6 9 11 1013.1 5.2 21.0 28.0 44.1 116.0 111.2 382.9
13 02:00 10.2 97 9.23 9.7 9 13 1025.9 5.2 21.1 28.6 45.0 118.0 113.1 389.3
13 01:50 10.2 97 9.23 9.7 9 11 1013.1 5.2 21.1 28.0 44.3 116.5 111.9 385.4
13 01:40 10.2 96 9.14 9.6 7 7 1013.1 5.2 20.9 27.9 44.0 115.5 110.7 380.9
13 01:30 9.8 96 8.91 9.2 9 11 1025.8 4.8 20.4 28.1 43.8 114.9 109.1 375.3
13 01:20 9.2 95 8.49 8.4 7 7 1013.1 4.6 19.6 27.1 41.7 109.5 102.9 353.6
13 01:10 9.4 95 8.59 8.6 7 7 1013.1 4.6 19.8 27.2 42.0 110.4 104.0 357.6
13 01:00 9.7 95 8.76 8.9 11 17 1025.8 4.6 20.1 27.9 43.2 113.3 107.1 368.3
13 00:50 10 95 8.93 9.2 13 15 1013.1 4.6 20.5 27.6 43.2 113.4 108.0 371.5
13 00:40 10.2 95 9.04 9.4 11 15 1013.1 4.6 20.7 27.7 43.5 114.4 109.3 376.0
13 00:30 10.3 95 9.1 9.5 11 15 1025.8 4.6 20.8 28.3 44.3 116.3 111.1 382.3
13 00:20 10.3 95 9.1 9.5 13 15 1013.1 4.6 20.8 27.8 43.7 114.9 110.0 378.4
13 00:10 10.4 95 9.16 9.6 13 17 1013.1 4.6 21.0 27.9 43.9 115.4 110.7 380.9
13 00:00 10.5 95 9.22 9.7 13 19 1025.9 4.6 21.1 28.4 44.7 117.4 112.5 387.3
12 23:50 10.3 95 9.1 9.5 15 15 1013.1 4.6 20.8 27.8 43.7 114.9 110.0 378.4
12 23:40 10.3 95 9.1 9.5 15 17 1013.1 4.6 20.8 27.8 43.7 114.9 110.0 378.4
12 23:30 10.4 95 9.16 9.6 15 19 1025.7 4.6 20.9 28.4 44.5 116.9 111.8 384.8
12 23:20 10.4 95 9.16 9.6 11 15 1013.1 4.6 21.0 27.9 43.9 115.4 110.7 380.9
12 23:10 10.3 95 9.1 9.5 11 15 1013.1 4.6 20.8 27.8 43.7 114.9 110.0 378.4
12 23:00 10.3 95 9.1 9.5 13 17 1025.6 4.6 20.8 28.3 44.3 116.3 111.1 382.2
12 22:50 10.3 95 9.1 9.5 9 11 1013.1 4.6 20.8 27.8 43.7 114.9 110.0 378.4
12 22:40 10.4 95 9.16 9.6 11 13 1013.1 4.6 21.0 27.9 43.9 115.4 110.7 380.9
12 22:30 10.4 95 9.16 9.6 13 17 1025.6 4.6 20.9 28.4 44.5 116.8 111.8 384.7
12 22:20 10.3 95 9.1 9.5 13 17 1013.1 4.6 20.8 27.8 43.7 114.9 110.0 378.4
12 22:10 10.2 95 9.04 9.4 13 15 1013.1 4.6 20.7 27.7 43.5 114.4 109.3 376.0
12 22:00 10.6 95 9.27 9.8 17 24 1025.5 4.6 21.2 28.5 44.9 117.8 113.1 389.2
12 21:50 10.6 95 9.27 9.9 17 17 1013.1 4.6 21.2 28.0 44.3 116.4 111.9 385.4
12 21:40 10.5 96 9.31 9.9 17 19 1013.1 4.6 21.3 28.1 44.5 117.0 112.6 387.8
12 21:30 10.5 97 9.41 10 17 22 1025.4 4.6 21.5 28.8 45.5 119.6 115.2 396.7
12 21:20 10.6 97 9.47 10.1 17 19 1013.1 4.6 21.6 28.3 45.1 118.7 114.8 395.3
12 21:10 10.5 97 9.41 10 17 19 1013.1 4.6 21.5 28.3 44.9 118.2 114.1 392.8
12 21:00 10.5 98 9.51 10.2 15 24 1025.3 4.6 21.7 28.9 46.0 120.7 116.6 401.7
12 20:50 10.2 98 9.33 9.9 15 19 1013.1 4.6 21.3 28.2 44.8 117.7 113.4 390.4
12 20:40 10.1 98 9.27 9.8 15 17 1013.1 4.6 21.2 28.1 44.6 117.1 112.7 387.9
12 20:30 10.2 98 9.33 9.9 15 17 1025 4.6 21.3 28.7 45.4 119.1 114.5 394.1
12 20:20 10.2 98 9.33 9.9 15 17 1013.1 4.6 21.3 28.2 44.8 117.7 113.4 390.4
12 20:10 10.1 98 9.27 9.8 13 15 1013.1 4.6 21.2 28.1 44.6 117.1 112.7 387.9
12 20:00 9.8 97 9 9.3 19 26 1024.8 4.6 20.6 28.2 44.1 115.8 110.3 379.5
12 19:50 10 98 9.21 9.7 15 20 1013.1 4.6 21.1 28.1 44.4 116.6 112.0 385.4
12 19:40 9.9 97 9.06 9.4 17 19 1013.1 4.6 20.8 27.8 43.8 115.0 110.0 378.4
12 19:30 10.2 97 9.23 9.7 15 19 1024.4 4.6 21.1 28.5 44.9 117.8 113.0 388.9
12 19:20 10.4 96 9.25 9.8 17 20 1013.1 4.6 21.2 28.0 44.3 116.5 111.9 385.4
12 19:10 10.3 96 9.2 9.7 17 20 1013.1 4.6 21.1 28.0 44.2 116.0 111.4 383.4
12 19:00 10.2 95 9.04 9.4 19 22 1024.1 4.6 20.7 28.2 44.0 115.6 110.2 379.3
12 18:50 10.2 95 9.04 9.4 19 22 1013.1 4.6 20.7 27.7 43.5 114.4 109.3 376.0
12 18:40 10.4 93 8.97 9.4 19 20 1013.1 4.6 20.6 27.5 43.1 113.3 108.0 371.6
12 18:30 10.5 94 9.12 9.6 15 22 1023.8 4.6 20.9 28.2 44.2 116.0 110.9 381.7
12 18:20 10.5 93 9.02 9.5 17 19 1013.1 4.6 20.7 27.6 43.3 113.7 108.5 373.5
12 18:10 10.4 93 8.97 9.4 17 20 1013.1 4.6 20.6 27.5 43.1 113.3 108.0 371.6
12 18:00 10.4 94 9.06 9.5 17 24 1023.5 4.6 20.7 28.1 44.0 115.5 110.2 379.1
12 17:50 10.4 93 8.97 9.4 20 22 1013.1 4.6 20.6 27.5 43.1 113.3 108.0 371.6
12 17:40 10.3 93 8.91 9.3 19 22 1013.1 4.6 20.4 27.5 42.9 112.7 107.3 369.1
12 17:30 10.3 95 9.1 9.5 15 20 1023.1 4.6 20.8 28.2 44.2 116.0 110.9 381.5
12 17:20 10.1 95 8.99 9.3 17 19 1013.1 4.6 20.6 27.7 43.4 113.9 108.7 374.0
12 17:10 9.9 93 8.69 8.9 15 19 1013.1 4.6 20.0 27.2 42.2 110.8 104.8 360.2
12 17:00 10 93 8.74 8.9 15 20 1022.8 4.6 20.1 27.6 42.8 112.3 106.2 365.0
12 16:50 10.2 92 8.76 8.9 15 19 1013.1 4.6 20.1 27.2 42.3 111.2 105.3 362.2
12 16:40 10.6 91 8.88 9.2 17 19 1013.1 4.6 20.3 27.3 42.6 111.9 106.4 366.2
12 16:30 10.8 90 8.9 9.2 20 24 1022.6 4.6 20.4 27.7 43.0 112.9 107.3 369.0

Last Refresh: 13-Jul-2020 09:23:27

Most of the information presented on this site is sourced from the Bureau of Meteorology.  Copyright in all material sourced from the Bureau of Meteorology resides with the Commonwealth of Australia.